createdAt,value
2018-09-03T00:02:25.367Z,43.27
2018-09-03T00:04:55.896Z,45.10
2018-09-03T00:07:25.645Z,43.53
2018-09-03T00:09:55.137Z,40.70
2018-09-03T00:12:24.754Z,38.60
2018-09-03T00:14:54.299Z,39.57
2018-09-03T00:17:23.924Z,43.83
2018-09-03T00:19:53.473Z,42.20
2018-09-03T00:22:23.037Z,45.10
2018-09-03T00:24:52.568Z,47.93
2018-09-03T00:27:22.102Z,50.90
2018-09-03T00:29:51.642Z,51.03
2018-09-03T00:32:26.332Z,47.13
2018-09-03T00:35:02.880Z,44.33
2018-09-03T00:37:37.786Z,39.00
2018-09-03T00:40:12.651Z,44.90
2018-09-03T00:42:47.409Z,50.00
2018-09-03T00:45:22.536Z,52.13
2018-09-03T00:47:52.248Z,50.93
2018-09-03T00:50:21.854Z,46.33
2018-09-03T00:52:51.387Z,43.10
2018-09-03T00:55:20.935Z,43.63
2018-09-03T00:57:50.517Z,45.80
2018-09-03T01:00:20.304Z,44.80
2018-09-03T01:02:49.968Z,44.47
2018-09-03T01:05:19.575Z,41.20
2018-09-03T01:07:49.124Z,38.97
2018-09-03T01:10:18.700Z,42.00
2018-09-03T01:12:48.319Z,41.83
2018-09-03T01:15:18.965Z,42.63
2018-09-03T01:17:48.552Z,44.10
2018-09-03T01:20:18.060Z,43.17
2018-09-03T01:22:47.586Z,45.20
2018-09-03T01:25:17.172Z,50.70
2018-09-03T01:27:46.696Z,46.53
2018-09-03T01:30:16.306Z,42.13
2018-09-03T01:32:46.124Z,44.53
2018-09-03T01:35:15.760Z,48.47
2018-09-03T01:37:45.356Z,45.97
2018-09-03T01:40:14.983Z,42.13
2018-09-03T01:42:44.697Z,47.43
2018-09-03T01:45:16.559Z,44.10
2018-09-03T01:47:46.350Z,46.23
2018-09-03T01:50:15.904Z,53.77
2018-09-03T01:52:45.678Z,52.57
2018-09-03T01:55:15.191Z,46.10
2018-09-03T01:57:44.859Z,51.53
2018-09-03T02:00:14.667Z,48.17
2018-09-03T02:02:45.857Z,47.70
2018-09-03T02:05:15.705Z,51.43
2018-09-03T02:07:45.214Z,49.30
2018-09-03T02:10:14.873Z,50.87
2018-09-03T02:12:44.460Z,46.13
2018-09-03T02:15:13.992Z,44.67
2018-09-03T02:17:43.499Z,46.00
2018-09-03T02:20:13.065Z,45.80
2018-09-03T02:22:42.683Z,47.40
2018-09-03T02:25:12.333Z,47.33
2018-09-03T02:27:42.285Z,49.30
2018-09-03T02:30:11.866Z,45.73
2018-09-03T02:32:41.514Z,52.30
2018-09-03T02:35:11.312Z,52.00
2018-09-03T02:37:41.973Z,55.07
2018-09-03T02:40:11.683Z,45.37
2018-09-03T02:42:41.369Z,41.87
2018-09-03T02:45:11.421Z,43.50
2018-09-03T02:47:41.260Z,43.53
2018-09-03T02:50:12.587Z,45.57
2018-09-03T02:52:42.848Z,45.87
2018-09-03T02:55:12.590Z,46.47
2018-09-03T02:57:42.196Z,48.33
2018-09-03T03:00:11.746Z,51.57
2018-09-03T03:02:42.285Z,41.93
2018-09-03T03:05:12.004Z,45.13
2018-09-03T03:07:41.887Z,46.70
2018-09-03T03:10:11.537Z,46.63
2018-09-03T03:12:41.314Z,45.07
2018-09-03T03:15:11.891Z,47.23
2018-09-03T03:17:42.725Z,51.47
2018-09-03T03:20:12.365Z,50.30
2018-09-03T03:22:42.151Z,48.13
2018-09-03T03:25:11.973Z,49.63
2018-09-03T03:27:41.583Z,49.40
2018-09-03T03:30:11.432Z,54.23
2018-09-03T03:32:42.950Z,58.33
2018-09-03T03:35:12.792Z,51.77
2018-09-03T03:37:47.694Z,61.33
2018-09-03T03:40:18.362Z,57.67
2018-09-03T03:42:48.041Z,63.30
2018-09-03T03:45:19.005Z,62.77
2018-09-03T03:47:48.647Z,76.73
2018-09-03T03:50:19.388Z,71.93
2018-09-03T03:52:49.121Z,65.23
2018-09-03T03:55:20.082Z,62.73
2018-09-03T03:57:49.740Z,61.43
2018-09-03T04:00:20.327Z,63.53
2018-09-03T04:02:50.895Z,59.50
2018-09-03T04:05:20.693Z,58.83
2018-09-03T04:07:50.577Z,62.53
2018-09-03T04:10:20.257Z,60.47
2018-09-03T04:12:58.793Z,66.00
2018-09-03T04:15:29.074Z,58.90
2018-09-03T04:18:00.058Z,50.20
2018-09-03T04:20:29.758Z,48.97
2018-09-03T04:22:59.557Z,46.23
2018-09-03T04:25:29.173Z,40.37
2018-09-03T04:27:58.803Z,36.40
2018-09-03T04:30:30.420Z,31.93
2018-09-03T04:33:00.959Z,32.80
2018-09-03T04:35:30.641Z,34.63
2018-09-03T04:38:01.264Z,32.03
2018-09-03T04:40:31.244Z,33.43
2018-09-03T04:43:01.057Z,30.17
2018-09-03T04:45:34.080Z,28.50
2018-09-03T04:48:04.750Z,29.03
2018-09-03T04:50:34.327Z,26.40
2018-09-03T04:53:03.982Z,25.63
2018-09-03T04:55:34.763Z,22.53
2018-09-03T04:58:04.965Z,25.40
2018-09-03T05:00:34.569Z,24.63
2018-09-03T05:03:04.189Z,23.90
2018-09-03T05:05:33.831Z,25.07
2018-09-03T05:08:03.264Z,25.23
2018-09-03T05:10:33.018Z,24.87
2018-09-03T05:13:03.626Z,25.57
2018-09-03T05:15:33.274Z,25.67
2018-09-03T05:18:02.991Z,27.00
2018-09-03T05:20:32.717Z,30.13
2018-09-03T05:23:02.494Z,30.13
2018-09-03T05:25:32.240Z,25.80
2018-09-03T05:28:01.733Z,30.60
2018-09-03T05:30:31.304Z,29.07
2018-09-03T05:33:01.004Z,31.30
2018-09-03T05:35:30.617Z,29.00
2018-09-03T05:38:01.022Z,31.80
2018-09-03T05:40:30.714Z,29.30
2018-09-03T05:43:00.272Z,31.17
2018-09-03T05:45:31.526Z,29.20
2018-09-03T05:48:01.965Z,30.30
2018-09-03T05:50:31.710Z,28.23
2018-09-03T05:53:02.452Z,28.50
2018-09-03T05:55:32.209Z,28.03
2018-09-03T05:58:01.955Z,27.30
2018-09-03T06:00:31.551Z,27.20
2018-09-03T06:03:01.142Z,26.33
2018-09-03T06:05:30.646Z,30.60
2018-09-03T06:08:00.255Z,28.13
2018-09-03T06:10:30.013Z,27.50
2018-09-03T06:12:59.639Z,33.60
2018-09-03T06:15:32.215Z,32.10
2018-09-03T06:18:01.837Z,29.00
2018-09-03T06:20:31.374Z,36.80
2018-09-03T06:23:02.056Z,30.40
2018-09-03T06:25:31.520Z,31.93
2018-09-03T06:28:00.992Z,34.13
2018-09-03T06:30:33.023Z,34.13
2018-09-03T06:33:02.728Z,32.50
2018-09-03T06:35:32.414Z,40.00
2018-09-03T06:38:02.318Z,35.03
2018-09-03T06:40:33.861Z,34.60
2018-09-03T06:43:03.851Z,31.93
2018-09-03T06:45:33.799Z,31.37
2018-09-03T06:48:03.375Z,36.90
2018-09-03T06:50:33.926Z,40.83
2018-09-03T06:53:04.645Z,44.67
2018-09-03T06:55:34.325Z,41.30
2018-09-03T06:58:04.179Z,40.63
2018-09-03T07:00:33.800Z,40.33
2018-09-03T07:03:03.452Z,42.43
2018-09-03T07:05:33.107Z,41.43
2018-09-03T07:08:02.677Z,44.50
2018-09-03T07:10:32.426Z,45.00
2018-09-03T07:13:06.126Z,45.30
2018-09-03T07:15:36.339Z,43.53
2018-09-03T07:18:06.676Z,41.40
2018-09-03T07:20:37.900Z,44.57
2018-09-03T07:23:08.112Z,43.07
2018-09-03T07:25:39.168Z,41.70
2018-09-03T07:28:11.260Z,40.43
2018-09-03T07:30:41.714Z,40.00
2018-09-03T07:33:11.273Z,39.17
2018-09-03T07:35:43.973Z,37.27
2018-09-03T07:38:13.558Z,31.50
2018-09-03T07:40:43.102Z,36.77
2018-09-03T07:43:12.811Z,36.47
2018-09-03T07:45:42.565Z,29.83
2018-09-03T07:48:12.475Z,37.77
2018-09-03T07:50:42.175Z,29.90
2018-09-03T07:53:12.725Z,29.53
2018-09-03T07:55:42.688Z,31.67
2018-09-03T07:58:12.264Z,27.97
2018-09-03T08:00:41.982Z,30.93
2018-09-03T08:03:11.573Z,30.97
2018-09-03T08:05:41.544Z,27.83
2018-09-03T08:08:13.107Z,27.30
2018-09-03T08:10:42.769Z,24.20
2018-09-03T08:13:16.488Z,23.60
2018-09-03T08:15:46.167Z,24.60
2018-09-03T08:18:16.428Z,22.23
2018-09-03T08:20:47.653Z,24.47
2018-09-03T08:23:18.754Z,25.47
2018-09-03T08:25:51.671Z,28.90
2018-09-03T08:28:26.540Z,27.93
2018-09-03T08:30:56.717Z,27.17
2018-09-03T08:33:29.096Z,32.47
2018-09-03T08:36:04.538Z,30.63
2018-09-03T08:38:34.163Z,25.67
2018-09-03T08:41:08.351Z,26.40
2018-09-03T08:43:39.273Z,24.77
2018-09-03T08:46:08.778Z,30.27
2018-09-03T08:48:40.128Z,27.17
2018-09-03T08:51:09.730Z,25.30
2018-09-03T08:53:40.626Z,21.83
2018-09-03T08:56:10.978Z,24.73
2018-09-03T08:58:43.296Z,22.33
2018-09-03T09:01:14.799Z,25.13
2018-09-03T09:03:49.876Z,26.20
2018-09-03T09:06:21.804Z,22.53
2018-09-03T09:08:51.470Z,23.07
2018-09-03T09:11:22.025Z,26.60
2018-09-03T09:13:53.664Z,26.40
2018-09-03T09:16:24.442Z,26.97
2018-09-03T09:18:54.321Z,26.10
2018-09-03T09:21:24.602Z,23.80
2018-09-03T09:23:54.355Z,23.63
2018-09-03T09:26:25.577Z,25.73
2018-09-03T09:29:01.463Z,25.43
2018-09-03T09:31:32.065Z,25.97
2018-09-03T09:34:01.619Z,28.83
2018-09-03T09:36:31.188Z,25.83
2018-09-03T09:39:00.948Z,29.70
2018-09-03T09:41:33.130Z,25.83
2018-09-03T09:44:04.071Z,23.43
2018-09-03T09:46:35.413Z,25.27
2018-09-03T09:49:07.827Z,24.67
2018-09-03T09:51:37.467Z,30.00
2018-09-03T09:54:07.998Z,23.87
2018-09-03T09:56:37.959Z,21.07
2018-09-03T09:59:07.923Z,18.67
2018-09-03T10:01:38.796Z,22.87
2018-09-03T10:04:10.347Z,23.03
2018-09-03T10:06:40.912Z,24.67
2018-09-03T10:09:11.653Z,25.23
2018-09-03T10:11:41.262Z,23.50
2018-09-03T10:14:10.815Z,25.07
2018-09-03T10:16:40.321Z,21.00
2018-09-03T10:19:09.917Z,24.73
2018-09-03T10:21:39.474Z,22.93
2018-09-03T10:24:11.357Z,22.07
2018-09-03T10:26:41.075Z,21.87
2018-09-03T10:29:11.321Z,19.70
2018-09-03T10:31:42.293Z,20.30
2018-09-03T10:34:13.606Z,23.10
2018-09-03T10:36:43.299Z,26.63
2018-09-03T10:39:14.292Z,24.43
2018-09-03T10:41:46.535Z,24.13
2018-09-03T10:44:16.969Z,25.27
2018-09-03T10:46:49.132Z,24.17
2018-09-03T10:49:20.266Z,24.30
2018-09-03T10:51:50.107Z,28.93
2018-09-03T10:54:22.191Z,25.30
2018-09-03T10:56:52.153Z,24.27
2018-09-03T10:59:22.560Z,24.23
2018-09-03T11:01:52.353Z,24.53
2018-09-03T11:04:22.723Z,25.67
2018-09-03T11:06:53.302Z,22.00
2018-09-03T11:09:22.863Z,20.30
2018-09-03T11:11:52.539Z,24.03
2018-09-03T11:14:22.151Z,22.23
2018-09-03T11:16:51.698Z,23.00
2018-09-03T11:19:23.823Z,21.30
2018-09-03T11:21:53.432Z,19.70
2018-09-03T11:24:22.980Z,18.00
2018-09-03T11:26:52.605Z,20.23
2018-09-03T11:29:23.113Z,18.80
2018-09-03T11:31:52.687Z,16.87
2018-09-03T11:34:22.235Z,17.30
2018-09-03T11:36:53.089Z,18.17
2018-09-03T11:39:22.874Z,13.73
2018-09-03T11:41:52.898Z,14.03
2018-09-03T11:44:22.414Z,14.23
2018-09-03T11:46:51.946Z,21.23
2018-09-03T11:49:21.513Z,21.17
2018-09-03T11:51:51.251Z,20.37
2018-09-03T11:54:20.994Z,20.37
2018-09-03T11:56:53.161Z,19.27
2018-09-03T11:59:23.776Z,19.30
2018-09-03T12:01:53.440Z,22.77
2018-09-03T12:04:23.493Z,21.20
2018-09-03T12:06:53.073Z,20.73
2018-09-03T12:09:23.627Z,18.30
2018-09-03T12:11:53.315Z,19.30
2018-09-03T12:14:28.437Z,21.53
2018-09-03T12:17:00.462Z,23.53
2018-09-03T12:19:30.004Z,23.93
2018-09-03T12:21:59.668Z,21.50
2018-09-03T12:24:29.312Z,23.10
2018-09-03T12:26:59.424Z,21.90
2018-09-03T12:29:29.991Z,23.10
2018-09-03T12:32:00.607Z,20.50
2018-09-03T12:34:32.261Z,20.40
2018-09-03T12:37:02.049Z,24.93
2018-09-03T12:39:32.631Z,21.23
2018-09-03T12:42:02.427Z,19.87
2018-09-03T12:44:32.965Z,21.63
2018-09-03T12:47:03.225Z,19.20
2018-09-03T12:49:32.882Z,20.80
2018-09-03T12:52:02.575Z,19.27
2018-09-03T12:54:32.489Z,20.07
2018-09-03T12:57:02.205Z,18.60
2018-09-03T12:59:32.009Z,19.97
2018-09-03T13:02:01.742Z,21.00
2018-09-03T13:04:31.244Z,18.27
2018-09-03T13:07:01.150Z,18.90
2018-09-03T13:09:32.139Z,19.57
2018-09-03T13:12:01.949Z,19.73
2018-09-03T13:14:32.310Z,20.43
2018-09-03T13:17:02.257Z,18.67
2018-09-03T13:19:31.924Z,21.03
2018-09-03T13:22:02.471Z,23.33
2018-09-03T13:24:32.220Z,20.97
2018-09-03T13:27:01.993Z,20.37
2018-09-03T13:29:31.773Z,20.33
2018-09-03T13:32:01.546Z,20.87
2018-09-03T13:34:31.213Z,18.70
2018-09-03T13:37:01.005Z,18.70
2018-09-03T13:39:31.585Z,19.73
2018-09-03T13:42:01.863Z,20.50
2018-09-03T13:44:31.370Z,18.23
2018-09-03T13:47:01.277Z,19.53
2018-09-03T13:49:30.852Z,19.53
2018-09-03T13:52:01.128Z,19.60
2018-09-03T13:54:30.771Z,20.47
2018-09-03T13:57:00.560Z,21.70
2018-09-03T13:59:30.235Z,17.87
2018-09-03T14:01:59.941Z,21.27
2018-09-03T14:04:30.587Z,19.93
2018-09-03T14:07:00.158Z,20.83
2018-09-03T14:09:29.976Z,19.83
2018-09-03T14:12:00.168Z,19.97
2018-09-03T14:14:30.081Z,19.90
2018-09-03T14:17:00.055Z,18.90
2018-09-03T14:19:29.723Z,19.13
2018-09-03T14:22:00.222Z,19.80
2018-09-03T14:24:29.748Z,17.27
2018-09-03T14:27:00.304Z,18.17
2018-09-03T14:29:29.806Z,15.90
2018-09-03T14:32:00.366Z,15.97
2018-09-03T14:34:30.133Z,16.47
2018-09-03T14:37:00.885Z,18.50
2018-09-03T14:39:33.227Z,19.47
2018-09-03T14:42:02.691Z,17.63
2018-09-03T14:44:33.508Z,17.83
2018-09-03T14:47:03.024Z,16.97
2018-09-03T14:49:32.634Z,17.93
2018-09-03T14:52:03.385Z,17.37
2018-09-03T14:54:33.203Z,17.33
2018-09-03T14:57:03.543Z,17.53
2018-09-03T14:59:33.101Z,18.13
2018-09-03T15:02:03.868Z,18.77
2018-09-03T15:04:33.550Z,17.57
2018-09-03T15:07:03.490Z,16.63
2018-09-03T15:09:33.033Z,16.63
2018-09-03T15:12:02.622Z,15.57
2018-09-03T15:14:32.083Z,15.37
2018-09-03T15:17:01.849Z,15.97
2018-09-03T15:19:31.387Z,18.13
2018-09-03T15:22:01.069Z,16.87
2018-09-03T15:24:31.793Z,17.30
2018-09-03T15:27:01.556Z,17.00
2018-09-03T15:29:32.312Z,17.13
2018-09-03T15:32:01.948Z,15.10
2018-09-03T15:34:33.600Z,15.17
2018-09-03T15:37:05.185Z,16.10
2018-09-03T15:39:35.179Z,13.93
2018-09-03T15:42:04.777Z,14.77
2018-09-03T15:44:37.917Z,14.10
2018-09-03T15:47:09.826Z,13.40
2018-09-03T15:49:40.718Z,13.30
2018-09-03T15:52:10.613Z,13.57
2018-09-03T15:54:40.319Z,14.53
2018-09-03T15:57:10.040Z,15.77
2018-09-03T15:59:39.657Z,14.93
2018-09-03T16:02:13.190Z,14.90
2018-09-03T16:04:43.702Z,14.83
2018-09-03T16:07:13.438Z,13.43
2018-09-03T16:09:43.523Z,16.83
2018-09-03T16:12:13.259Z,14.67
2018-09-03T16:14:42.877Z,13.67
2018-09-03T16:17:14.319Z,14.37
2018-09-03T16:19:44.419Z,14.03
2018-09-03T16:22:14.710Z,13.57
2018-09-03T16:24:45.010Z,12.83
2018-09-03T16:27:15.329Z,14.13
2018-09-03T16:29:44.955Z,11.83
2018-09-03T16:32:14.794Z,11.97
2018-09-03T16:34:44.447Z,13.00
2018-09-03T16:37:14.095Z,17.43
2018-09-03T16:39:43.718Z,13.80
2018-09-03T16:42:14.236Z,14.93
2018-09-03T16:44:44.896Z,15.23
2018-09-03T16:47:14.623Z,15.37
2018-09-03T16:49:46.773Z,16.10
2018-09-03T16:52:18.340Z,15.70
2018-09-03T16:54:48.835Z,14.70
2018-09-03T16:57:20.492Z,12.67
2018-09-03T16:59:50.983Z,13.20
2018-09-03T17:02:20.668Z,15.87
2018-09-03T17:04:50.242Z,12.53
2018-09-03T17:07:21.738Z,12.53
2018-09-03T17:09:51.196Z,15.03
2018-09-03T17:12:21.225Z,13.97
2018-09-03T17:14:51.566Z,13.13
2018-09-03T17:17:23.044Z,12.17
2018-09-03T17:19:53.023Z,15.03
2018-09-03T17:22:22.637Z,13.37
2018-09-03T17:24:56.175Z,15.50
2018-09-03T17:27:25.798Z,15.23
2018-09-03T17:29:55.452Z,15.07
2018-09-03T17:32:25.014Z,16.07
2018-09-03T17:34:54.538Z,16.57
2018-09-03T17:37:24.064Z,14.77
2018-09-03T17:39:54.669Z,16.40
2018-09-03T17:42:28.545Z,16.57
2018-09-03T17:44:58.168Z,16.87
2018-09-03T17:47:27.962Z,17.00
2018-09-03T17:49:57.575Z,17.17
2018-09-03T17:52:28.162Z,16.47
2018-09-03T17:54:58.568Z,16.10
2018-09-03T17:57:29.077Z,15.13
2018-09-03T17:59:58.725Z,16.97
2018-09-03T18:02:29.275Z,18.87
2018-09-03T18:05:01.369Z,16.43
2018-09-03T18:07:31.006Z,15.97
2018-09-03T18:10:00.593Z,15.80
2018-09-03T18:12:30.142Z,16.53
2018-09-03T18:15:00.827Z,16.80
2018-09-03T18:17:30.403Z,15.47
2018-09-03T18:20:00.091Z,15.50
2018-09-03T18:22:30.787Z,15.60
2018-09-03T18:25:00.569Z,19.47
2018-09-03T18:27:34.290Z,17.63
2018-09-03T18:30:03.999Z,15.87
2018-09-03T18:32:33.636Z,18.47
2018-09-03T18:35:04.418Z,17.93
2018-09-03T18:37:34.197Z,15.50
2018-09-03T18:40:04.958Z,14.30
2018-09-03T18:42:34.721Z,13.57
2018-09-03T18:45:04.567Z,14.93
2018-09-03T18:47:36.225Z,13.87
2018-09-03T18:50:06.872Z,14.60
2018-09-03T18:52:37.782Z,15.33
2018-09-03T18:55:07.516Z,14.93
2018-09-03T18:57:37.494Z,17.73
2018-09-03T19:00:07.964Z,15.37
2018-09-03T19:02:37.675Z,14.50
2018-09-03T19:05:07.376Z,16.50
2018-09-03T19:07:37.352Z,16.37
2018-09-03T19:10:07.139Z,18.33
2018-09-03T19:12:36.930Z,17.83
2018-09-03T19:15:08.408Z,16.40
2018-09-03T19:17:38.320Z,16.57
2018-09-03T19:20:08.308Z,17.63
2018-09-03T19:22:38.613Z,17.27
2018-09-03T19:25:08.457Z,18.03
2018-09-03T19:27:38.435Z,16.73
2018-09-03T19:30:08.221Z,15.43
2018-09-03T19:32:37.898Z,14.77
2018-09-03T19:35:07.706Z,13.97
2018-09-03T19:37:37.506Z,14.80
2018-09-03T19:40:07.592Z,15.57
2018-09-03T19:42:37.539Z,14.93
2018-09-03T19:45:07.200Z,16.37
2018-09-03T19:47:36.985Z,16.17
2018-09-03T19:50:07.710Z,14.67
2018-09-03T19:52:37.504Z,15.33
2018-09-03T19:55:07.149Z,16.77
2018-09-03T19:57:37.606Z,14.97
2018-09-03T20:00:07.688Z,14.53
2018-09-03T20:02:37.748Z,16.43
2018-09-03T20:05:07.928Z,20.90
2018-09-03T20:07:37.660Z,15.13
2018-09-03T20:10:11.390Z,12.37
2018-09-03T20:12:41.959Z,17.73
2018-09-03T20:15:17.012Z,19.17
2018-09-03T20:17:47.610Z,16.10
2018-09-03T20:20:17.244Z,15.27
2018-09-03T20:22:47.155Z,16.97
2018-09-03T20:25:16.877Z,17.30
2018-09-03T20:27:46.592Z,18.97
2018-09-03T20:30:16.346Z,15.03
2018-09-03T20:32:46.047Z,17.03
2018-09-03T20:35:18.231Z,15.83
2018-09-03T20:37:49.874Z,17.07
2018-09-03T20:40:19.752Z,16.90
2018-09-03T20:42:51.751Z,17.57
2018-09-03T20:45:23.181Z,18.70
2018-09-03T20:47:52.981Z,16.53
2018-09-03T20:50:24.633Z,16.63
2018-09-03T20:52:56.108Z,15.50
2018-09-03T20:55:27.843Z,16.60
2018-09-03T20:57:57.410Z,16.37
2018-09-03T21:00:27.009Z,16.63
2018-09-03T21:02:56.668Z,19.80
2018-09-03T21:05:26.360Z,17.37
2018-09-03T21:07:55.972Z,15.57
2018-09-03T21:10:29.530Z,17.37
2018-09-03T21:12:59.804Z,17.03
2018-09-03T21:15:30.149Z,15.40
2018-09-03T21:18:03.853Z,17.30
2018-09-03T21:20:33.461Z,18.07
2018-09-03T21:23:04.012Z,17.07
2018-09-03T21:25:35.011Z,16.10
2018-09-03T21:28:05.599Z,15.70
2018-09-03T21:30:36.213Z,15.57
2018-09-03T21:33:06.785Z,15.27
2018-09-03T21:35:37.555Z,17.60
2018-09-03T21:38:07.443Z,15.00
2018-09-03T21:40:38.082Z,17.77
2018-09-03T21:43:08.754Z,22.70
2018-09-03T21:45:38.426Z,14.47
2018-09-03T21:48:08.174Z,15.80
2018-09-03T21:50:38.946Z,15.40
2018-09-03T21:53:08.610Z,14.67
2018-09-03T21:55:38.248Z,15.33
2018-09-03T21:58:08.592Z,13.67
2018-09-03T22:00:38.334Z,14.50
2018-09-03T22:03:08.809Z,14.93
2018-09-03T22:05:38.482Z,14.67
2018-09-03T22:08:08.309Z,16.60
2018-09-03T22:10:38.259Z,12.67
2018-09-03T22:13:07.963Z,15.40
2018-09-03T22:15:44.685Z,13.43
2018-09-03T22:18:14.314Z,14.47
2018-09-03T22:20:43.968Z,13.43
2018-09-03T22:23:13.582Z,13.53
2018-09-03T22:25:44.220Z,14.47
2018-09-03T22:28:14.373Z,11.93
2018-09-03T22:30:43.935Z,14.37
2018-09-03T22:33:14.260Z,13.57
2018-09-03T22:35:43.790Z,14.13
2018-09-03T22:38:13.300Z,15.07
2018-09-03T22:40:44.970Z,13.07
2018-09-03T22:43:14.826Z,12.73
2018-09-03T22:45:45.459Z,12.60
2018-09-03T22:48:15.236Z,14.87
2018-09-03T22:50:45.018Z,14.37
2018-09-03T22:53:14.662Z,12.17
2018-09-03T22:55:45.284Z,12.47
2018-09-03T22:58:15.093Z,16.17
2018-09-03T23:00:44.872Z,12.10
2018-09-03T23:03:14.474Z,14.50
2018-09-03T23:05:46.429Z,15.83
2018-09-03T23:08:16.017Z,13.97
2018-09-03T23:10:45.571Z,13.40
2018-09-03T23:13:16.293Z,12.43
2018-09-03T23:15:52.695Z,14.13
2018-09-03T23:18:24.318Z,13.07
2018-09-03T23:20:54.965Z,14.20
2018-09-03T23:23:24.541Z,14.53
2018-09-03T23:25:55.209Z,14.33
2018-09-03T23:28:26.771Z,14.80
2018-09-03T23:30:56.431Z,15.50
2018-09-03T23:33:28.061Z,14.80
2018-09-03T23:35:57.801Z,16.53
2018-09-03T23:38:27.418Z,16.97
2018-09-03T23:40:59.962Z,18.17
2018-09-03T23:43:29.590Z,16.87
2018-09-03T23:45:59.274Z,17.27
2018-09-03T23:48:28.796Z,18.03
2018-09-03T23:51:02.897Z,17.30
2018-09-03T23:53:32.525Z,18.30
2018-09-03T23:56:04.077Z,22.00
2018-09-03T23:58:33.634Z,20.57
